Terminal Aerodrome Forecast
Issued by NWS Corpus Christi, TX

Home | Current Version | Previous Version | Text Only | Print | Product List | Glossary On
Versions: 1 2 3 4 5 6 7 8 9 10 11
000
FTUS44 KCRP 271100
TAFVCT
TAF
KVCT 271129Z 2712/2812 15008KT 3SM BR OVC004
      TEMPO 2712/2715 2SM -DZ BR OVC002
     FM271500 18008KT P6SM VCSH BKN008 OVC015
     FM272000 36015G22KT P6SM OVC012
      TEMPO 2720/2724 4SM TSRA OVC010CB
     FM280200 36017G23KT P6SM OVC015
     FM280800 35015KT P6SM OVC020
      TEMPO 2808/2812 -RA=

USA.gov is the U.S. government's official web portal to all federal, state and local government web resources and services.